createdAt,value
2019-06-26T00:01:04.908Z,66.49
2019-06-26T00:03:35.325Z,66.62
2019-06-26T00:06:06.893Z,66.82
2019-06-26T00:08:37.384Z,66.91
2019-06-26T00:11:07.840Z,67.18
2019-06-26T00:13:38.278Z,67.23
2019-06-26T00:16:08.802Z,67.25
2019-06-26T00:18:39.702Z,67.17
2019-06-26T00:21:10.563Z,66.93
2019-06-26T00:23:41.175Z,66.63
2019-06-26T00:26:11.840Z,67.40
2019-06-26T00:28:42.575Z,67.65
2019-06-26T00:31:13.216Z,68.01
2019-06-26T00:33:43.839Z,68.41
2019-06-26T00:36:17.852Z,68.24
2019-06-26T00:38:51.544Z,67.51
2019-06-26T00:41:24.253Z,66.79
2019-06-26T00:43:57.853Z,67.64
2019-06-26T00:46:28.341Z,68.07
2019-06-26T00:48:58.959Z,67.80
2019-06-26T00:51:31.812Z,67.68
2019-06-26T00:54:05.119Z,68.01
2019-06-26T00:56:39.283Z,67.49
2019-06-26T00:59:13.293Z,67.50
2019-06-26T01:01:46.904Z,67.65
2019-06-26T01:04:24.670Z,68.04
2019-06-26T01:06:56.872Z,68.24
2019-06-26T01:09:28.474Z,68.09
2019-06-26T01:12:02.686Z,68.51
2019-06-26T01:14:35.657Z,68.68
2019-06-26T01:17:07.139Z,68.30
2019-06-26T01:19:37.988Z,68.36
2019-06-26T01:22:08.546Z,68.13
2019-06-26T01:24:39.245Z,67.46
2019-06-26T01:27:09.731Z,67.52
2019-06-26T01:29:40.334Z,66.91
2019-06-26T01:32:10.915Z,67.39
2019-06-26T01:34:41.464Z,67.20
2019-06-26T01:37:12.275Z,66.92
2019-06-26T01:39:42.904Z,67.70
2019-06-26T01:42:13.927Z,68.23
2019-06-26T01:44:44.578Z,68.62
2019-06-26T01:47:15.290Z,68.84
2019-06-26T01:49:45.639Z,69.17
2019-06-26T01:52:16.495Z,69.34
2019-06-26T01:54:47.181Z,69.39
2019-06-26T01:57:17.918Z,69.71
2019-06-26T01:59:48.573Z,70.04
2019-06-26T02:02:19.210Z,70.18
2019-06-26T02:04:49.738Z,70.19
2019-06-26T02:07:20.865Z,70.39
2019-06-26T02:09:51.695Z,70.54
2019-06-26T02:12:22.207Z,70.77
2019-06-26T02:14:52.748Z,70.60
2019-06-26T02:17:23.632Z,70.85
2019-06-26T02:19:54.257Z,70.73
2019-06-26T02:22:25.028Z,71.01
2019-06-26T02:24:55.728Z,71.13
2019-06-26T02:27:26.298Z,71.39
2019-06-26T02:29:57.149Z,71.23
2019-06-26T02:32:27.858Z,70.73
2019-06-26T02:37:37.265Z,71.90
2019-06-26T02:40:09.380Z,71.97
2019-06-26T02:42:40.055Z,72.28
2019-06-26T02:45:10.790Z,72.10
2019-06-26T02:47:41.333Z,72.34
2019-06-26T02:50:12.082Z,72.54
2019-06-26T02:52:42.687Z,73.05
2019-06-26T02:55:13.351Z,73.46
2019-06-26T02:57:44.147Z,73.53
2019-06-26T03:00:15.125Z,73.88
2019-06-26T03:02:45.782Z,74.06
2019-06-26T03:05:16.530Z,74.32
2019-06-26T03:07:47.277Z,74.49
2019-06-26T03:10:17.984Z,74.87
2019-06-26T03:12:56.654Z,75.10
2019-06-26T03:15:35.671Z,75.53
2019-06-26T03:18:07.224Z,75.92
2019-06-26T03:20:43.343Z,76.14
2019-06-26T03:23:13.776Z,76.39
2019-06-26T03:25:44.161Z,76.41
2019-06-26T03:28:14.709Z,76.33
2019-06-26T03:30:45.030Z,76.46
2019-06-26T03:33:15.496Z,76.11
2019-06-26T03:35:45.860Z,76.10
2019-06-26T03:38:16.069Z,76.16
2019-06-26T03:40:46.467Z,76.19
2019-06-26T03:43:16.734Z,76.09
2019-06-26T03:45:47.089Z,76.24
2019-06-26T03:48:17.626Z,76.28
2019-06-26T03:50:48.029Z,76.19
2019-06-26T03:53:18.442Z,76.25
2019-06-26T03:55:48.731Z,76.33
2019-06-26T03:58:19.062Z,76.16
2019-06-26T04:00:49.809Z,76.16
2019-06-26T04:03:20.060Z,76.08
2019-06-26T04:05:50.321Z,76.24
2019-06-26T04:08:20.551Z,76.17
2019-06-26T04:10:50.985Z,76.23
2019-06-26T04:13:21.385Z,76.25
2019-06-26T04:15:51.663Z,76.20
2019-06-26T04:18:22.170Z,75.91
2019-06-26T04:20:52.455Z,75.72
2019-06-26T04:23:23.009Z,75.60
2019-06-26T04:25:53.646Z,75.66
2019-06-26T04:28:24.054Z,75.64
2019-06-26T04:30:54.448Z,75.51
2019-06-26T04:33:24.760Z,75.51
2019-06-26T04:35:55.055Z,75.37
2019-06-26T04:38:25.410Z,75.30
2019-06-26T04:40:55.808Z,75.13
2019-06-26T04:43:26.147Z,74.97
2019-06-26T04:45:58.541Z,74.97
2019-06-26T04:48:30.260Z,74.91
2019-06-26T04:51:00.519Z,74.80
2019-06-26T04:53:30.903Z,74.60
2019-06-26T04:56:01.178Z,74.38
2019-06-26T04:58:31.466Z,74.07
2019-06-26T05:01:01.837Z,73.97
2019-06-26T05:03:32.039Z,73.66
2019-06-26T05:06:02.303Z,73.50
2019-06-26T05:08:32.658Z,73.17
2019-06-26T05:11:03.008Z,72.93
2019-06-26T05:13:33.291Z,72.71
2019-06-26T05:16:14.272Z,72.51
2019-06-26T05:18:35.764Z,72.31
2019-06-26T05:21:07.043Z,72.07
2019-06-26T05:23:38.606Z,71.85
2019-06-26T05:26:09.627Z,71.40
2019-06-26T05:28:41.552Z,71.21
2019-06-26T05:31:11.937Z,71.19
2019-06-26T05:33:42.402Z,70.94
2019-06-26T05:36:12.802Z,70.60
2019-06-26T05:38:43.250Z,70.33
2019-06-26T05:41:13.756Z,70.06
2019-06-26T05:43:44.190Z,69.77
2019-06-26T05:46:29.747Z,69.61
2019-06-26T05:48:46.790Z,69.17
2019-06-26T05:51:17.115Z,68.81
2019-06-26T05:53:47.408Z,68.63
2019-06-26T05:56:17.698Z,68.51
2019-06-26T05:58:48.122Z,68.36
2019-06-26T06:01:18.421Z,68.23
2019-06-26T06:03:48.701Z,67.77
2019-06-26T06:06:19.037Z,67.35
2019-06-26T06:08:49.591Z,67.22
2019-06-26T06:11:20.049Z,66.96
2019-06-26T06:13:50.300Z,66.53
2019-06-26T06:16:20.624Z,65.83
2019-06-26T06:18:51.456Z,65.42
2019-06-26T06:21:21.866Z,64.98
2019-06-26T06:24:00.238Z,64.48
2019-06-26T06:26:30.867Z,64.25
2019-06-26T06:29:01.564Z,63.56
2019-06-26T06:31:31.913Z,63.10
2019-06-26T06:34:02.285Z,63.28
2019-06-26T06:36:32.605Z,63.03
2019-06-26T06:39:04.070Z,62.99
2019-06-26T06:41:34.417Z,62.80
2019-06-26T06:44:04.771Z,62.78
2019-06-26T06:46:35.305Z,62.65
2019-06-26T06:49:06.746Z,62.22
2019-06-26T06:51:37.100Z,61.93
2019-06-26T06:54:07.425Z,61.90
2019-06-26T06:56:38.283Z,61.90
2019-06-26T06:59:08.707Z,61.68
2019-06-26T07:01:39.199Z,61.22
2019-06-26T07:04:10.279Z,60.82
2019-06-26T07:06:40.596Z,60.70
2019-06-26T07:09:10.992Z,60.72
2019-06-26T07:11:41.458Z,60.50
2019-06-26T07:14:12.047Z,60.58
2019-06-26T07:16:42.908Z,60.58
2019-06-26T07:19:13.194Z,59.97
2019-06-26T07:21:43.581Z,59.49
2019-06-26T07:24:14.065Z,59.28
2019-06-26T07:26:44.368Z,59.10
2019-06-26T07:29:14.723Z,58.76
2019-06-26T07:31:44.975Z,58.46
2019-06-26T07:34:15.370Z,58.59
2019-06-26T07:36:45.711Z,58.70
2019-06-26T07:39:16.075Z,58.71
2019-06-26T07:41:46.454Z,58.87
2019-06-26T07:44:16.813Z,58.95
2019-06-26T07:46:47.206Z,58.91
2019-06-26T07:49:17.491Z,58.99
2019-06-26T07:51:47.917Z,58.71
2019-06-26T07:54:18.227Z,58.73
2019-06-26T07:56:48.677Z,58.47
2019-06-26T07:59:18.993Z,58.49
2019-06-26T08:01:49.436Z,58.40
2019-06-26T08:04:19.742Z,58.42
2019-06-26T08:06:50.695Z,58.21
2019-06-26T08:09:22.135Z,58.71
2019-06-26T08:11:52.484Z,58.98
2019-06-26T08:14:22.867Z,58.71
2019-06-26T08:16:53.300Z,58.85
2019-06-26T08:19:23.746Z,58.99
2019-06-26T08:21:54.022Z,58.80
2019-06-26T08:24:24.328Z,58.54
2019-06-26T08:26:54.708Z,58.28
2019-06-26T08:29:25.062Z,58.31
2019-06-26T08:31:55.439Z,58.45
2019-06-26T08:34:25.817Z,58.16
2019-06-26T08:36:56.292Z,58.27
2019-06-26T08:39:26.663Z,58.60
2019-06-26T08:41:58.140Z,58.83
2019-06-26T08:44:28.513Z,58.93
2019-06-26T08:46:58.805Z,58.90
2019-06-26T08:49:29.270Z,59.02
2019-06-26T08:51:59.659Z,59.22
2019-06-26T08:54:30.102Z,59.63
2019-06-26T08:57:00.799Z,59.95
2019-06-26T08:59:31.186Z,60.13
2019-06-26T09:02:01.574Z,60.41
2019-06-26T09:04:31.957Z,60.77
2019-06-26T09:07:02.218Z,61.29
2019-06-26T09:09:34.096Z,62.08
2019-06-26T09:12:04.464Z,62.77
2019-06-26T09:14:34.887Z,63.47
2019-06-26T09:17:05.236Z,64.28
2019-06-26T09:19:35.532Z,64.85
2019-06-26T09:22:08.940Z,65.41
2019-06-26T09:24:39.291Z,65.78
2019-06-26T09:27:09.566Z,65.69
2019-06-26T09:29:40.033Z,65.75
2019-06-26T09:32:10.311Z,65.86
2019-06-26T09:34:40.616Z,66.08
2019-06-26T09:37:16.325Z,65.98
2019-06-26T09:39:46.767Z,65.83
2019-06-26T09:42:19.669Z,65.72
2019-06-26T09:44:49.269Z,65.79
2019-06-26T09:47:19.657Z,65.72
2019-06-26T09:49:50.015Z,65.52
2019-06-26T09:52:20.264Z,65.49
2019-06-26T09:54:50.754Z,65.21
2019-06-26T09:57:21.231Z,65.36
2019-06-26T09:59:51.532Z,65.50
2019-06-26T10:02:21.874Z,65.81
2019-06-26T10:04:52.157Z,65.55
2019-06-26T10:07:22.493Z,65.67
2019-06-26T10:09:52.871Z,65.57
2019-06-26T10:12:23.181Z,65.06
2019-06-26T10:14:53.497Z,64.52
2019-06-26T10:17:23.858Z,64.22
2019-06-26T10:19:54.360Z,63.75
2019-06-26T10:22:24.659Z,63.49
2019-06-26T10:24:54.939Z,63.48
2019-06-26T10:27:25.411Z,63.22
2019-06-26T10:29:55.877Z,62.82
2019-06-26T10:32:26.132Z,62.39
2019-06-26T10:34:56.549Z,62.25
2019-06-26T10:37:26.821Z,62.11
2019-06-26T10:39:57.352Z,62.28
2019-06-26T10:42:27.808Z,62.31
2019-06-26T10:45:01.034Z,62.22
2019-06-26T10:47:31.531Z,61.88
2019-06-26T10:50:01.949Z,61.27
2019-06-26T10:52:33.423Z,60.60
2019-06-26T10:55:03.994Z,60.27
2019-06-26T10:57:34.446Z,59.62
2019-06-26T11:00:06.047Z,59.43
2019-06-26T11:02:36.469Z,59.28
2019-06-26T11:05:07.946Z,58.91
2019-06-26T11:07:38.342Z,58.43
2019-06-26T11:10:10.289Z,58.24
2019-06-26T11:12:40.792Z,57.88
2019-06-26T11:15:11.659Z,57.51
2019-06-26T11:17:42.450Z,57.71
2019-06-26T11:20:14.822Z,57.81
2019-06-26T11:22:45.300Z,57.02
2019-06-26T11:25:16.387Z,56.16
2019-06-26T11:27:46.774Z,55.61
2019-06-26T11:30:17.719Z,54.73
2019-06-26T11:32:48.369Z,53.76
2019-06-26T11:35:19.215Z,53.17
2019-06-26T11:37:49.615Z,52.69
2019-06-26T11:40:21.046Z,52.28
2019-06-26T11:42:51.400Z,51.77
2019-06-26T11:45:21.824Z,51.36
2019-06-26T11:47:52.176Z,51.19
2019-06-26T11:50:24.163Z,50.73
2019-06-26T11:52:54.742Z,50.79
2019-06-26T11:55:25.113Z,49.87
2019-06-26T11:57:55.575Z,49.51
2019-06-26T12:00:26.359Z,49.35
2019-06-26T12:02:57.062Z,48.94
2019-06-26T12:05:27.624Z,48.76
2019-06-26T12:07:58.206Z,49.08
2019-06-26T12:10:29.585Z,48.92
2019-06-26T12:13:03.905Z,48.50
2019-06-26T12:15:32.405Z,48.58
2019-06-26T12:18:02.812Z,49.01
2019-06-26T12:20:33.271Z,49.07
2019-06-26T12:23:03.846Z,48.39
2019-06-26T12:25:34.232Z,48.37
2019-06-26T12:28:04.716Z,47.63
2019-06-26T12:30:35.233Z,46.79
2019-06-26T12:33:06.960Z,46.41
2019-06-26T12:35:37.368Z,46.49
2019-06-26T12:38:07.797Z,45.07
2019-06-26T12:40:38.201Z,45.29
2019-06-26T12:43:08.733Z,44.86
2019-06-26T12:45:39.177Z,44.46
2019-06-26T12:48:09.641Z,44.48
2019-06-26T12:50:40.094Z,44.77
2019-06-26T12:53:18.266Z,45.43
2019-06-26T12:55:48.946Z,44.38
2019-06-26T12:58:20.227Z,43.67
2019-06-26T13:00:51.326Z,43.20
2019-06-26T13:03:22.928Z,42.08
2019-06-26T13:05:54.440Z,41.00
2019-06-26T13:08:25.005Z,41.66
2019-06-26T13:10:55.480Z,42.00
2019-06-26T13:13:26.128Z,42.33
2019-06-26T13:15:56.625Z,41.73
2019-06-26T13:18:27.147Z,42.15
2019-06-26T13:20:57.561Z,42.73
2019-06-26T13:23:28.001Z,43.28
2019-06-26T13:25:58.442Z,43.39
2019-06-26T13:28:28.818Z,42.78
2019-06-26T13:30:59.168Z,42.12
2019-06-26T13:33:29.580Z,42.05
2019-06-26T13:36:00.142Z,41.45
2019-06-26T13:38:30.531Z,41.40
2019-06-26T13:41:00.954Z,40.60
2019-06-26T13:43:31.402Z,41.09
2019-06-26T13:46:01.805Z,41.06
2019-06-26T13:48:32.172Z,40.23
2019-06-26T13:51:09.186Z,38.36
2019-06-26T13:53:34.581Z,36.67
2019-06-26T13:56:05.572Z,35.82
2019-06-26T13:58:35.967Z,35.39
2019-06-26T14:01:06.792Z,36.03
2019-06-26T14:03:37.187Z,34.65
2019-06-26T14:06:07.733Z,33.53
2019-06-26T14:08:38.165Z,34.55
2019-06-26T14:11:08.611Z,34.42
2019-06-26T14:13:41.814Z,32.93
2019-06-26T14:16:11.169Z,31.97
2019-06-26T14:18:41.580Z,31.57
2019-06-26T14:21:24.988Z,30.74
2019-06-26T14:23:44.161Z,31.76
2019-06-26T14:26:14.557Z,31.52
2019-06-26T14:28:44.778Z,30.49
2019-06-26T14:31:15.117Z,30.52
2019-06-26T14:33:45.574Z,31.03
2019-06-26T14:36:16.006Z,30.81
2019-06-26T14:38:46.289Z,29.31
2019-06-26T14:41:16.705Z,30.30
2019-06-26T14:43:47.215Z,32.14
2019-06-26T14:46:17.618Z,31.49
2019-06-26T14:48:48.026Z,31.33
2019-06-26T14:51:18.470Z,32.01
2019-06-26T14:53:48.796Z,33.18
2019-06-26T14:56:19.270Z,33.29
2019-06-26T14:58:49.627Z,32.41
2019-06-26T15:01:19.888Z,32.94
2019-06-26T15:03:53.443Z,34.10
2019-06-26T15:06:23.896Z,34.35
2019-06-26T15:08:54.252Z,34.72
2019-06-26T15:11:24.688Z,34.98
2019-06-26T15:13:55.060Z,35.75
2019-06-26T15:16:25.755Z,36.51
2019-06-26T15:18:56.245Z,36.07
2019-06-26T15:21:26.644Z,35.19
2019-06-26T15:23:57.017Z,36.19
2019-06-26T15:26:27.379Z,35.64
2019-06-26T15:28:57.759Z,34.73
2019-06-26T15:31:28.220Z,35.28
2019-06-26T15:33:58.572Z,35.21
2019-06-26T15:36:28.910Z,32.68
2019-06-26T15:38:59.426Z,30.89
2019-06-26T15:41:29.920Z,31.85
2019-06-26T15:44:00.320Z,32.42
2019-06-26T15:46:30.838Z,31.67
2019-06-26T15:49:01.401Z,32.01
2019-06-26T15:51:31.706Z,32.85
2019-06-26T15:54:02.083Z,33.14
2019-06-26T15:56:32.505Z,32.32
2019-06-26T15:59:02.900Z,31.18
2019-06-26T16:01:33.485Z,29.09
2019-06-26T16:04:03.786Z,28.55
2019-06-26T16:06:34.249Z,30.73
2019-06-26T16:09:04.961Z,33.26
2019-06-26T16:11:35.542Z,35.19
2019-06-26T16:14:07.039Z,36.49
2019-06-26T16:16:39.005Z,38.03
2019-06-26T16:19:13.471Z,38.75
2019-06-26T16:21:43.851Z,39.58
2019-06-26T16:24:14.407Z,40.23
2019-06-26T16:26:45.180Z,40.73
2019-06-26T16:29:15.839Z,41.82
2019-06-26T16:31:46.174Z,42.50
2019-06-26T16:34:16.563Z,43.17
2019-06-26T16:36:46.758Z,43.13
2019-06-26T16:39:17.365Z,43.29
2019-06-26T16:41:49.089Z,44.31
2019-06-26T16:44:19.508Z,45.46
2019-06-26T16:47:08.920Z,46.46
2019-06-26T16:49:39.265Z,47.30
2019-06-26T16:52:09.620Z,47.76
2019-06-26T16:54:40.032Z,48.04
2019-06-26T16:57:10.488Z,47.65
2019-06-26T16:59:40.861Z,47.43
2019-06-26T17:02:11.247Z,47.38
2019-06-26T17:04:41.666Z,47.95
2019-06-26T17:07:12.008Z,48.63
2019-06-26T17:09:44.445Z,49.34
2019-06-26T17:12:14.688Z,50.05
2019-06-26T17:14:45.198Z,50.88
2019-06-26T17:17:16.055Z,51.48
2019-06-26T17:22:23.230Z,52.62
2019-06-26T17:24:53.671Z,52.97
2019-06-26T17:27:24.142Z,53.33
2019-06-26T17:29:54.602Z,53.51
2019-06-26T17:32:25.107Z,53.84
2019-06-26T17:34:55.486Z,53.71
2019-06-26T17:37:26.147Z,53.72
2019-06-26T17:39:56.603Z,53.81
2019-06-26T17:42:27.035Z,53.88
2019-06-26T17:44:57.435Z,54.05
2019-06-26T17:47:27.930Z,54.42
2019-06-26T17:49:58.368Z,54.97
2019-06-26T17:52:28.873Z,55.39
2019-06-26T17:54:59.168Z,55.32
2019-06-26T17:57:29.598Z,55.06
2019-06-26T17:59:59.929Z,55.41
2019-06-26T18:02:30.376Z,55.49
2019-06-26T18:05:02.175Z,55.80
2019-06-26T18:07:32.943Z,55.99
2019-06-26T18:10:03.546Z,56.34
2019-06-26T18:12:34.155Z,56.84
2019-06-26T18:15:05.001Z,57.12
2019-06-26T18:17:35.497Z,57.37
2019-06-26T18:20:06.608Z,57.59
2019-06-26T18:22:37.144Z,57.66
2019-06-26T18:25:08.618Z,57.72
2019-06-26T18:27:39.123Z,57.75
2019-06-26T18:30:10.190Z,57.92
2019-06-26T18:32:40.704Z,58.04
2019-06-26T18:35:11.635Z,57.89
2019-06-26T18:37:42.028Z,58.08
2019-06-26T18:40:13.320Z,58.23
2019-06-26T18:42:43.755Z,58.45
2019-06-26T18:45:36.793Z,58.72
2019-06-26T18:48:08.256Z,58.88
2019-06-26T18:50:38.707Z,59.10
2019-06-26T18:53:09.935Z,59.16
2019-06-26T18:55:42.637Z,59.22
2019-06-26T18:58:20.264Z,59.28
2019-06-26T19:00:52.358Z,59.18
2019-06-26T19:03:24.264Z,59.25
2019-06-26T19:05:56.379Z,59.65
2019-06-26T19:08:26.914Z,59.80
2019-06-26T19:10:57.400Z,59.90
2019-06-26T19:13:27.992Z,60.36
2019-06-26T19:15:58.535Z,60.73
2019-06-26T19:18:31.853Z,60.86
2019-06-26T19:21:02.481Z,61.02
2019-06-26T19:23:32.947Z,61.28
2019-06-26T19:26:03.383Z,61.43
2019-06-26T19:28:38.049Z,61.44
2019-06-26T19:31:08.942Z,61.42
2019-06-26T19:33:39.364Z,61.57
2019-06-26T19:36:10.175Z,61.43
2019-06-26T19:38:43.778Z,61.42
2019-06-26T19:41:14.164Z,61.52
2019-06-26T19:43:44.649Z,61.81
2019-06-26T19:46:15.011Z,61.86
2019-06-26T19:48:45.429Z,62.00
2019-06-26T19:51:15.773Z,62.05
2019-06-26T19:53:46.133Z,62.08
2019-06-26T19:56:19.942Z,62.25
2019-06-26T19:58:48.788Z,62.60
2019-06-26T20:01:19.426Z,62.81
2019-06-26T20:03:50.103Z,63.08
2019-06-26T20:06:20.532Z,63.30
2019-06-26T20:08:56.150Z,63.35
2019-06-26T20:11:23.105Z,63.28
2019-06-26T20:13:53.494Z,63.38
2019-06-26T20:16:24.011Z,63.39
2019-06-26T20:18:54.364Z,63.57
2019-06-26T20:21:24.770Z,63.71
2019-06-26T20:24:03.486Z,63.79
2019-06-26T20:26:30.617Z,63.91
2019-06-26T20:29:01.316Z,63.90
2019-06-26T20:31:42.110Z,63.76
2019-06-26T20:34:18.896Z,63.77
2019-06-26T20:36:49.794Z,63.90
2019-06-26T20:39:28.845Z,64.08
2019-06-26T20:42:03.597Z,63.95
2019-06-26T20:44:35.933Z,63.86
2019-06-26T20:47:12.695Z,63.91
2019-06-26T20:49:53.041Z,63.87
2019-06-26T20:52:19.305Z,63.92
2019-06-26T20:55:00.980Z,64.20
2019-06-26T20:57:25.726Z,64.33
2019-06-26T20:59:56.476Z,64.34
2019-06-26T21:02:27.125Z,64.33
2019-06-26T21:04:57.554Z,64.37
2019-06-26T21:07:28.245Z,64.50
2019-06-26T21:09:59.050Z,64.57
2019-06-26T21:12:31.025Z,64.70
2019-06-26T21:15:04.250Z,64.85
2019-06-26T21:17:34.973Z,65.00
2019-06-26T21:20:16.419Z,65.04
2019-06-26T21:22:54.528Z,64.84
2019-06-26T21:25:33.033Z,64.92
2019-06-26T21:28:13.223Z,64.90
2019-06-26T21:30:47.434Z,64.90
2019-06-26T21:33:28.464Z,65.07
2019-06-26T21:36:08.391Z,65.26
2019-06-26T21:38:49.362Z,65.38
2019-06-26T21:41:31.848Z,65.45
2019-06-26T21:44:09.427Z,65.48
2019-06-26T21:46:49.637Z,65.53
2019-06-26T21:49:25.658Z,65.64
2019-06-26T21:52:04.321Z,65.49
2019-06-26T21:54:47.420Z,65.48
2019-06-26T21:57:27.984Z,65.52
2019-06-26T22:00:04.068Z,65.43
2019-06-26T22:02:44.742Z,65.34
2019-06-26T22:05:22.032Z,65.40
2019-06-26T22:07:59.423Z,65.44
2019-06-26T22:10:36.106Z,65.35
2019-06-26T22:13:13.966Z,65.33
2019-06-26T22:15:50.589Z,65.32
2019-06-26T22:18:27.692Z,65.17
2019-06-26T22:21:05.706Z,65.04
2019-06-26T22:23:43.101Z,64.91
2019-06-26T22:26:26.374Z,64.83
2019-06-26T22:29:03.936Z,64.80
2019-06-26T22:31:41.257Z,64.73
2019-06-26T22:34:18.480Z,64.74
2019-06-26T22:36:58.659Z,64.75
2019-06-26T22:39:34.751Z,64.69
2019-06-26T22:42:13.210Z,64.58
2019-06-26T22:44:54.345Z,64.53
2019-06-26T22:47:34.684Z,64.59
2019-06-26T22:50:11.592Z,64.57
2019-06-26T22:52:49.765Z,64.51
2019-06-26T22:55:31.975Z,64.42
2019-06-26T22:58:10.830Z,64.32
2019-06-26T23:00:49.572Z,64.36
2019-06-26T23:03:27.308Z,64.41
2019-06-26T23:06:05.070Z,64.47
2019-06-26T23:08:45.034Z,64.50
2019-06-26T23:11:22.852Z,64.62
2019-06-26T23:14:01.140Z,64.76
2019-06-26T23:16:40.580Z,64.91
2019-06-26T23:19:18.628Z,64.97
2019-06-26T23:21:58.705Z,64.90
2019-06-26T23:24:41.221Z,64.77
2019-06-26T23:27:17.600Z,64.73
2019-06-26T23:29:57.228Z,64.60
2019-06-26T23:32:34.447Z,64.48
2019-06-26T23:35:15.532Z,64.42
2019-06-26T23:37:54.669Z,64.50
2019-06-26T23:40:31.180Z,64.63
2019-06-26T23:43:07.408Z,64.75
2019-06-26T23:45:47.136Z,64.76
2019-06-26T23:48:28.250Z,64.76
2019-06-26T23:51:10.144Z,64.90
2019-06-26T23:53:52.274Z,65.03
2019-06-26T23:56:40.799Z,65.08
2019-06-26T23:59:15.441Z,65.08
